Latest Coastal Weather Observations for Neptune Island

IDT60701

Issued at 11:11 am EST Saturday 5 September 2015 (issued every 10 minutes, with the page automatically refreshed every 10 minutes)

About coastal observations | Map of coastal stations | Coastal observations for TAS | Marine services | Other Formats
Station Details ID: 018115 Name: NEPTUNE ISLAND Lat: -35.34 Lon: 136.12 Height: 32.0 m
Data from the previous 72 hours. | See also: Recent months at Neptune Island
Date/Time
EST
Temp

°C
Wind Pressure Rain
since 9am
mm
Weather Cloud Vis
km
Sea
Height
m
Swell
Dir
 
Speed
knots
Gust
knots
hPa Trend Height
m
Period
s
Dir
05/11:00am 14.0 NNE 18 21 1021.9 - 0.0 - - - - - - -
05/10:30am 13.4 NNE 19 22 1022.2 - 0.0 - - - - - - -
05/10:00am 12.7 NNE 18 21 1022.3 - 0.0 - - - - - - -
05/09:30am 12.5 NNE 17 20 1022.5 - 0.0 - - - - - - -
05/09:00am 12.1 NE 17 20 1022.5 - 0.0 - - - - - - -
05/08:30am 12.1 NE 16 19 1022.8 - 0.0 - - - - - - -
05/08:00am 12.0 NNE 17 20 1022.9 - 0.0 - - - - - - -
05/07:30am 11.4 NNE 16 19 1022.9 - 0.0 - - - - - - -
05/07:00am 11.5 NNE 16 20 1022.9 - 0.0 - - - - - - -
05/06:30am 11.4 NNE 16 19 1022.7 - 0.0 - - - - - - -
05/06:00am 11.2 NNE 15 19 1022.7 - 0.0 - - - - - - -
05/05:30am 11.3 NNE 14 18 1022.6 - 0.0 - - - - - - -
05/05:00am 11.5 NE 12 16 1022.5 - 0.0 - - - - - - -
05/04:30am 11.3 NE 11 15 1022.4 - 0.0 - - - - - - -
05/04:00am 11.3 NE 11 16 1022.2 - 0.0 - - - - - - -
05/03:30am 11.4 ENE 15 18 1022.7 - 0.0 - - - - - - -
05/03:00am 11.1 NE 13 16 1023.2 - 0.0 - - - - - - -
05/02:30am 11.2 ENE 13 18 1023.5 - 0.0 - - - - - - -
05/02:00am 11.2 ENE 12 16 1023.7 - 0.0 - - - - - - -
05/01:30am 11.2 ENE 12 15 1023.9 - 0.0 - - - - - - -
05/01:00am 11.2 ENE 11 15 1024.1 - 0.0 - - - - - - -
05/12:30am 11.2 ENE 10 13 1024.6 - 0.0 - - - - - - -
05/12:00am 11.3 NE 8 12 1025.1 - 0.0 - - - - - - -
 
Date/Time
EST
Temp

°C
Wind Pressure Rain
since 9am
mm
Weather Cloud Vis
km
Sea
Height
m
Swell
Dir
 
Speed
knots
Gust
knots
hPa Trend Height
m
Period
s
Dir
04/11:30pm 11.3 ENE 7 10 1025.2 - 0.0 - - - - - - -
04/11:00pm 11.3 ENE 8 11 1025.6 - 0.0 - - - - - - -
04/10:30pm 10.6 ENE 8 10 1025.8 - 0.0 - - - - - - -
04/10:00pm 10.2 E 7 8 1025.9 - 0.0 - - - - - - -
04/09:30pm 10.7 ENE 5 7 1026.1 - 0.0 - - - - - - -
04/09:00pm 10.8 CALM 0 0 1026.1 - 0.0 - - - - - - -
04/08:30pm 10.8 NE 3 4 1025.9 - 0.0 - - - - - - -
04/08:00pm 10.9 N 1 3 1025.7 - 0.0 - - - - - - -
04/07:30pm 11.1 N 5 7 1025.7 - 0.0 - - - - - - -
04/07:00pm 11.6 NNE 5 7 1025.6 - 0.0 - - - - - - -
04/06:30pm 11.8 NE 5 8 1025.5 - 0.0 - - - - - - -
04/06:00pm 12.1 NE 5 7 1025.3 - 0.0 - - - - - - -
04/05:30pm 12.3 E 6 8 1025.1 - 0.0 - - - - - - -
04/05:00pm 12.5 E 4 7 1025.2 - 0.0 - - - - - - -
04/04:30pm 12.7 ENE 3 5 1025.5 - 0.0 - - - - - - -
04/04:00pm 13.0 ENE 3 5 1025.7 - 0.0 - - - - - - -
04/03:30pm 12.9 SSW 1 3 1025.8 - 0.0 - - - - - - -
04/03:00pm 12.9 CALM 0 3 1026.0 - 0.0 - - - - - - -
04/02:30pm 13.0 N 2 4 1026.2 - 0.0 - - - - - - -
04/02:00pm 13.3 ENE 3 4 1026.5 - 0.0 - - - - - - -
04/01:30pm 13.3 NNE 3 6 1026.8 - 0.0 - - - - - - -
04/01:00pm 13.3 NE 1 5 1026.9 - 0.0 - - - - - - -
04/12:30pm 13.2 ENE 4 6 1027.4 - 0.0 - - - - - - -
04/12:00pm 12.7 NNE 5 9 1027.7 - 0.0 - - - - - - -
04/11:30am 13.0 E 5 8 1027.8 - 0.0 - - - - - - -
04/11:00am 12.6 ENE 8 11 1027.7 - 0.0 - - - - - - -
04/10:30am 12.3 ENE 6 8 1027.7 - 0.0 - - - - - - -
04/10:00am 12.4 E 7 12 1027.8 - 0.0 - - - - - - -
04/09:30am 12.2 E 7 11 1027.8 - 0.0 - - - - - - -
04/09:00am 11.8 ESE 6 9 1028.0 - 0.0 - - - - - - -
04/08:30am 11.6 SE 4 5 1028.0 - 0.0 - - - - - - -
04/08:00am 11.6 S 6 9 1027.8 - 0.0 - - - - - - -
04/07:30am 11.5 SSE 7 8 1027.6 - 0.0 - - - - - - -
04/07:00am 11.4 SSE 5 7 1027.6 - 0.0 - - - - - - -
04/06:30am 11.7 S 7 10 1027.4 - 0.0 - - - - - - -
04/06:00am 11.6 S 7 9 1027.2 - 0.0 - - - - - - -
04/05:30am 11.6 S 7 10 1026.7 - 0.0 - - - - - - -
04/05:00am 11.4 SSW 6 8 1026.5 - 0.0 - - - - - - -
04/04:30am 11.3 SSE 7 10 1026.2 - 0.0 - - - - - - -
04/04:00am 11.5 SSW 7 10 1026.3 - 0.0 - - - - - - -
04/03:30am 11.1 ESE 7 8 1026.5 - 0.0 - - - - - - -
04/03:00am 11.3 SE 11 15 1026.7 - 0.0 - - - - - - -
04/02:30am 11.3 SSE 8 12 1026.7 - 0.0 - - - - - - -
04/02:00am 11.5 SSW 6 7 1026.9 - 0.0 - - - - - - -
04/01:30am 11.7 S 10 13 1027.0 - 0.0 - - - - - - -
04/01:00am 11.6 SSE 6 10 1027.2 - 0.0 - - - - - - -
04/12:30am 11.5 S 5 8 1027.4 - 0.0 - - - - - - -
04/12:00am 11.7 SSW 10 13 1027.4 - 0.0 - - - - - - -
 
Date/Time
EST
Temp

°C
Wind Pressure Rain
since 9am
mm
Weather Cloud Vis
km
Sea
Height
m
Swell
Dir
 
Speed
knots
Gust
knots
hPa Trend Height
m
Period
s
Dir
03/11:30pm 11.9 SSW 11 14 1027.6 - 0.0 - - - - - - -
03/11:00pm 11.9 S 9 11 1027.6 - 0.0 - - - - - - -
03/10:30pm 11.9 S 9 11 1027.6 - 0.0 - - - - - - -
03/10:00pm 11.9 SSW 12 16 1027.4 - 0.0 - - - - - - -
03/09:30pm 12.0 S 13 17 1027.2 - 0.0 - - - - - - -
03/09:00pm 12.0 S 11 16 1026.8 - 0.0 - - - - - - -
03/08:30pm 12.0 S 12 16 1026.5 - 0.0 - - - - - - -
03/08:00pm 12.2 S 11 14 1026.5 - 0.0 - - - - - - -
03/07:30pm 12.2 SSE 11 17 1026.3 - 0.0 - - - - - - -
03/07:00pm 12.0 S 12 15 1026.0 - 0.0 - - - - - - -
03/06:30pm 12.1 S 13 16 1025.7 - 0.0 - - - - - - -
03/06:00pm 12.3 S 14 18 1025.2 - 0.0 - - - - - - -
03/05:30pm 12.3 S 16 20 1025.0 - 0.0 - - - - - - -
03/05:00pm 12.6 S 15 17 1024.8 - 0.0 - - - - - - -
03/04:30pm 12.8 S 14 17 1024.7 - 0.0 - - - - - - -
03/04:00pm 12.7 S 16 19 1024.3 - 0.0 - - - - - - -
03/03:30pm 13.1 S 16 19 1024.0 - 0.0 - - - - - - -
03/03:00pm 12.1 SSW 16 20 1023.8 - 0.0 - - - - - - -
03/02:30pm 12.3 S 18 23 1023.7 - 0.0 - - - - - - -
03/02:00pm 12.4 S 19 25 1023.7 - 0.0 - - - - - - -
03/01:30pm 13.1 S 17 21 1023.8 - 0.0 - - - - - - -
03/01:00pm 13.4 S 18 22 1023.7 - 0.0 - - - - - - -
03/12:30pm 13.1 S 18 22 1023.9 - 0.0 - - - - - - -
03/12:00pm 12.8 SSW 19 23 1024.0 - 0.0 - - - - - - -
03/11:30am 12.8 SSW 19 23 1023.9 - 0.0 - - - - - - -
03/11:00am 11.9 S 19 22 1023.8 - 0.0 - - - - - - -
03/10:30am 12.8 SSW 21 26 1023.4 - 0.0 - - - - - - -
03/10:00am 12.8 SSW 22 26 1022.9 - 0.0 - - - - - - -
03/09:30am 12.6 SSW 25 29 1022.3 - 4.8 - - - - - - -
03/09:00am 12.1 SSW 25 30 1021.7 - 4.8 - - - - - - -
03/08:30am 12.4 SSW 24 29 1021.1 - 4.8 - - - - - - -
03/08:00am 12.4 SSW 24 29 1020.5 - 4.8 - - - - - - -
03/07:30am 12.7 S 24 30 1019.8 - 4.8 - - - - - - -
03/07:00am 12.4 S 25 31 1018.9 - 4.8 - - - - - - -
03/06:30am 13.1 SSW 27 33 1018.3 - 4.8 - - - - - - -
03/06:00am 13.1 SSW 29 34 1017.7 - 4.8 - - - - - - -
03/05:30am 13.2 SSW 29 35 1017.1 - 4.8 - - - - - - -
03/05:00am 13.1 SSW 29 34 1016.6 - 4.8 - - - - - - -
03/04:30am 13.0 SSW 28 32 1016.2 - 4.8 - - - - - - -
03/04:00am 13.0 SSW 30 35 1015.8 - 4.8 - - - - - - -
03/03:30am 12.7 SSW 29 34 1015.5 - 4.8 - - - - - - -
03/03:00am 12.7 SSW 30 37 1015.0 - 4.8 - - - - - - -
03/02:30am 12.9 SSW 31 38 1014.8 - 4.8 - - - - - - -
03/02:00am 13.1 SSW 32 39 1014.3 - 4.8 - - - - - - -
03/01:30am 13.1 SSW 29 35 1014.1 - 4.4 - - - - - - -
03/01:00am 13.3 SSW 27 34 1013.6 - 4.4 - - - - - - -
03/12:53am 13.6 SSW 24 34 1013.5 - 4.4 - - - - - - -
03/12:30am 13.2 SSW 23 27 1013.3 - 4.4 - - - - - - -
03/12:13am 13.4 SSW 26 33 1012.8 - 4.4 - - - - - - -
03/12:00am 13.3 SSW 20 23 1013.0 - 4.4 - - - - - - -
 
Date/Time
EST
Temp

°C
Wind Pressure Rain
since 9am
mm
Weather Cloud Vis
km
Sea
Height
m
Swell
Dir
 
Speed
knots
Gust
knots
hPa Trend Height
m
Period
s
Dir
02/11:30pm 13.2 SSW 21 25 1012.6 - 4.4 - - - - - - -
02/11:00pm 13.1 SSW 22 26 1012.4 - 4.4 - - - - - - -
02/10:30pm 13.1 SSW 23 28 1011.9 - 4.4 - - - - - - -
02/10:00pm 13.1 SSW 23 28 1011.1 - 4.4 - - - - - - -
02/09:30pm 13.2 SSW 25 29 1010.3 - 4.4 - - - - - - -
02/09:00pm 13.4 SSW 27 31 1009.9 - 4.4 - - - - - - -
02/08:30pm 13.1 SSW 25 30 1008.8 - 4.4 - - - - - - -
02/08:00pm 13.2 SSW 30 35 1008.1 - 4.4 - - - - - - -
02/07:30pm 13.2 SSW 27 32 1007.2 - 4.4 - - - - - - -
02/07:23pm 12.8 S 27 37 1007.2 - 4.4 - - - - - - -
02/07:00pm 13.2 SSW 29 34 1006.5 - 4.4 - - - - - - -
02/06:30pm 13.0 SSW 25 31 1005.7 - 4.2 Recent precip. - - - - - -
02/06:00pm 13.3 SSW 27 33 1004.9 - 4.0 - - - - - - -
02/05:30pm 13.3 SSW 26 31 1004.4 - 4.0 - - - - - - -
02/05:00pm 13.2 SSW 26 32 1003.4 - 4.0 - - - - - - -
02/04:30pm 13.1 SSW 27 33 1002.9 - 4.0 - - - - - - -
02/04:00pm 13.3 SSW 27 32 1001.8 - 4.0 - - - - - - -
02/03:30pm 13.0 SSW 25 29 1001.1 - 4.0 - - - - - - -
02/03:00pm 12.6 SSW 20 24 1000.6 - 4.0 - - - - - - -
02/02:30pm 12.8 S 24 29 999.9 - 4.0 - - - - - - -
02/02:00pm 12.8 S 25 30 999.1 - 4.0 - - - - - - -
02/01:30pm 12.6 S 24 28 998.5 - 4.0 - - - - - - -
02/01:00pm 11.9 SSE 21 27 997.9 - 4.0 - - - - - - -
02/12:56pm 12.2 S 20 27 997.8 - 4.0 - - - - - - -
02/12:30pm 13.1 SSW 14 17 996.9 - 4.0 Recent precip. - - - - - -
02/12:00pm 11.6 WSW 10 13 997.3 - 4.0 - - - - - - -

Other Formats:

Comma delimited format used in spreadsheet applications
http://www.bom.gov.au/fwo/IDT60701/IDT60701.94804.axf

JavaScript Object Notation format (JSON) in row-major order
http://www.bom.gov.au/fwo/IDT60701/IDT60701.94804.json